<?xml version="1.0" encoding="UTF-8" standalone="no" ?>
<gpx xmlns="http://www.topografix.com/GPX/1/1" xmlns:xsi="http://www.w3.org/2001/XMLSchema-instance" xsi:schemaLocation="http://www.topografix.com/GPX/1/1 http://www.topografix.com/GPX/1/1/gpx.xsd" version="1.1" creator="VisuGPX - https://www.visugpx.com">
  <metadata>
    <name>Parthenay_CitadelleValleeThouet_19.6km</name>
    <desc><![CDATA[gnerando idor:8125516]]></desc>
  </metadata>
  <trk>
    <name><![CDATA[Parthenay_CitadelleValleeDuThouet_19.6km-8125516]]></name>
    <extensions>
      <line xmlns="http://www.topografix.com/GPX/gpx_style/0/2">
        <color>0000FF</color>
        <width>4</width>
      </line>
    </extensions>
    <trkseg>
      <trkpt lat="46.64" lon="-0.2656">
        <ele>134</ele>
        <time>2023-11-08T17:52:50Z</time>
      </trkpt>
      <trkpt lat="46.63983" lon="-0.26552">
        <ele>134</ele>
        <time>2023-11-08T17:53:14Z</time>
      </trkpt>
      <trkpt lat="46.63965" lon="-0.26559">
        <ele>134</ele>
        <time>2023-11-08T17:53:39Z</time>
      </trkpt>
      <trkpt lat="46.63928" lon="-0.26556">
        <ele>134</ele>
        <time>2023-11-08T17:54:28Z</time>
      </trkpt>
      <trkpt lat="46.63909" lon="-0.26561">
        <ele>134</ele>
        <time>2023-11-08T17:54:54Z</time>
      </trkpt>
      <trkpt lat="46.6389" lon="-0.26561">
        <ele>134</ele>
        <time>2023-11-08T17:55:19Z</time>
      </trkpt>
      <trkpt lat="46.63862" lon="-0.26491">
        <ele>135</ele>
        <time>2023-11-08T17:56:34Z</time>
      </trkpt>
      <trkpt lat="46.63844" lon="-0.26489">
        <ele>135</ele>
        <time>2023-11-08T17:56:58Z</time>
      </trkpt>
      <trkpt lat="46.63828" lon="-0.26502">
        <ele>135</ele>
        <time>2023-11-08T17:57:22Z</time>
      </trkpt>
      <trkpt lat="46.63775" lon="-0.26578">
        <ele>138</ele>
        <time>2023-11-08T17:59:01Z</time>
      </trkpt>
      <trkpt lat="46.63747" lon="-0.26613">
        <ele>139</ele>
        <time>2023-11-08T17:59:51Z</time>
      </trkpt>
      <trkpt lat="46.63735" lon="-0.26635">
        <ele>139</ele>
        <time>2023-11-08T18:00:16Z</time>
      </trkpt>
      <trkpt lat="46.6374" lon="-0.26662">
        <ele>139</ele>
        <time>2023-11-08T18:00:42Z</time>
      </trkpt>
      <trkpt lat="46.63753" lon="-0.26682">
        <ele>138</ele>
        <time>2023-11-08T18:01:07Z</time>
      </trkpt>
      <trkpt lat="46.63727" lon="-0.26637">
        <ele>140</ele>
        <time>2023-11-08T18:02:01Z</time>
      </trkpt>
      <trkpt lat="46.63709" lon="-0.26643">
        <ele>140</ele>
        <time>2023-11-08T18:02:26Z</time>
      </trkpt>
      <trkpt lat="46.637" lon="-0.26618">
        <ele>141</ele>
        <time>2023-11-08T18:02:52Z</time>
      </trkpt>
      <trkpt lat="46.63688" lon="-0.26599">
        <ele>142</ele>
        <time>2023-11-08T18:03:15Z</time>
      </trkpt>
      <trkpt lat="46.6367" lon="-0.26604">
        <ele>143</ele>
        <time>2023-11-08T18:03:40Z</time>
      </trkpt>
      <trkpt lat="46.63635" lon="-0.26622">
        <ele>145</ele>
        <time>2023-11-08T18:04:29Z</time>
      </trkpt>
      <trkpt lat="46.63561" lon="-0.26648">
        <ele>148</ele>
        <time>2023-11-08T18:06:11Z</time>
      </trkpt>
      <trkpt lat="46.63541" lon="-0.26602">
        <ele>149</ele>
        <time>2023-11-08T18:07:01Z</time>
      </trkpt>
      <trkpt lat="46.63527" lon="-0.26553">
        <ele>151</ele>
        <time>2023-11-08T18:07:49Z</time>
      </trkpt>
      <trkpt lat="46.63527" lon="-0.26526">
        <ele>151</ele>
        <time>2023-11-08T18:08:14Z</time>
      </trkpt>
      <trkpt lat="46.63526" lon="-0.26553">
        <ele>150</ele>
        <time>2023-11-08T18:08:39Z</time>
      </trkpt>
      <trkpt lat="46.63534" lon="-0.26576">
        <ele>150</ele>
        <time>2023-11-08T18:09:02Z</time>
      </trkpt>
      <trkpt lat="46.63539" lon="-0.26603">
        <ele>149</ele>
        <time>2023-11-08T18:09:28Z</time>
      </trkpt>
      <trkpt lat="46.63525" lon="-0.26622">
        <ele>148</ele>
        <time>2023-11-08T18:09:54Z</time>
      </trkpt>
      <trkpt lat="46.63507" lon="-0.26629">
        <ele>147</ele>
        <time>2023-11-08T18:10:18Z</time>
      </trkpt>
      <trkpt lat="46.63488" lon="-0.2663">
        <ele>147</ele>
        <time>2023-11-08T18:10:44Z</time>
      </trkpt>
      <trkpt lat="46.63453" lon="-0.26648">
        <ele>145</ele>
        <time>2023-11-08T18:11:33Z</time>
      </trkpt>
      <trkpt lat="46.63437" lon="-0.2666">
        <ele>144</ele>
        <time>2023-11-08T18:11:57Z</time>
      </trkpt>
      <trkpt lat="46.63392" lon="-0.26746">
        <ele>139</ele>
        <time>2023-11-08T18:13:36Z</time>
      </trkpt>
      <trkpt lat="46.63377" lon="-0.26765">
        <ele>138</ele>
        <time>2023-11-08T18:14:03Z</time>
      </trkpt>
      <trkpt lat="46.63359" lon="-0.26764">
        <ele>137</ele>
        <time>2023-11-08T18:14:27Z</time>
      </trkpt>
      <trkpt lat="46.63342" lon="-0.26756">
        <ele>137</ele>
        <time>2023-11-08T18:14:51Z</time>
      </trkpt>
      <trkpt lat="46.6331" lon="-0.26727">
        <ele>138</ele>
        <time>2023-11-08T18:15:41Z</time>
      </trkpt>
      <trkpt lat="46.63277" lon="-0.26703">
        <ele>138</ele>
        <time>2023-11-08T18:16:30Z</time>
      </trkpt>
      <trkpt lat="46.6324" lon="-0.26699">
        <ele>138</ele>
        <time>2023-11-08T18:17:20Z</time>
      </trkpt>
      <trkpt lat="46.63203" lon="-0.26688">
        <ele>138</ele>
        <time>2023-11-08T18:18:10Z</time>
      </trkpt>
      <trkpt lat="46.63175" lon="-0.26723">
        <ele>137</ele>
        <time>2023-11-08T18:19:00Z</time>
      </trkpt>
      <trkpt lat="46.6314" lon="-0.26748">
        <ele>138</ele>
        <time>2023-11-08T18:19:52Z</time>
      </trkpt>
      <trkpt lat="46.63122" lon="-0.2675">
        <ele>139</ele>
        <time>2023-11-08T18:20:16Z</time>
      </trkpt>
      <trkpt lat="46.63066" lon="-0.26745">
        <ele>141</ele>
        <time>2023-11-08T18:21:30Z</time>
      </trkpt>
      <trkpt lat="46.6303" lon="-0.26749">
        <ele>142</ele>
        <time>2023-11-08T18:22:19Z</time>
      </trkpt>
      <trkpt lat="46.62994" lon="-0.26758">
        <ele>142</ele>
        <time>2023-11-08T18:23:07Z</time>
      </trkpt>
      <trkpt lat="46.62976" lon="-0.26767">
        <ele>142</ele>
        <time>2023-11-08T18:23:33Z</time>
      </trkpt>
      <trkpt lat="46.62942" lon="-0.2679">
        <ele>143</ele>
        <time>2023-11-08T18:24:23Z</time>
      </trkpt>
      <trkpt lat="46.62794" lon="-0.2683">
        <ele>146</ele>
        <time>2023-11-08T18:27:44Z</time>
      </trkpt>
      <trkpt lat="46.62739" lon="-0.26842">
        <ele>145</ele>
        <time>2023-11-08T18:28:58Z</time>
      </trkpt>
      <trkpt lat="46.62703" lon="-0.26855">
        <ele>146</ele>
        <time>2023-11-08T18:29:47Z</time>
      </trkpt>
      <trkpt lat="46.62671" lon="-0.26883">
        <ele>147</ele>
        <time>2023-11-08T18:30:37Z</time>
      </trkpt>
      <trkpt lat="46.62654" lon="-0.26894">
        <ele>148</ele>
        <time>2023-11-08T18:31:02Z</time>
      </trkpt>
      <trkpt lat="46.62609" lon="-0.26941">
        <ele>148</ele>
        <time>2023-11-08T18:32:16Z</time>
      </trkpt>
      <trkpt lat="46.62591" lon="-0.26946">
        <ele>148</ele>
        <time>2023-11-08T18:32:40Z</time>
      </trkpt>
      <trkpt lat="46.62573" lon="-0.26941">
        <ele>148</ele>
        <time>2023-11-08T18:33:05Z</time>
      </trkpt>
      <trkpt lat="46.62537" lon="-0.26924">
        <ele>149</ele>
        <time>2023-11-08T18:33:55Z</time>
      </trkpt>
      <trkpt lat="46.62519" lon="-0.26926">
        <ele>149</ele>
        <time>2023-11-08T18:34:19Z</time>
      </trkpt>
      <trkpt lat="46.625" lon="-0.26933">
        <ele>150</ele>
        <time>2023-11-08T18:34:46Z</time>
      </trkpt>
      <trkpt lat="46.62449" lon="-0.26962">
        <ele>152</ele>
        <time>2023-11-08T18:35:59Z</time>
      </trkpt>
      <trkpt lat="46.62431" lon="-0.26969">
        <ele>152</ele>
        <time>2023-11-08T18:36:24Z</time>
      </trkpt>
      <trkpt lat="46.62396" lon="-0.2699">
        <ele>154</ele>
        <time>2023-11-08T18:37:14Z</time>
      </trkpt>
      <trkpt lat="46.62326" lon="-0.27026">
        <ele>157</ele>
        <time>2023-11-08T18:38:53Z</time>
      </trkpt>
      <trkpt lat="46.6231" lon="-0.27038">
        <ele>157</ele>
        <time>2023-11-08T18:39:17Z</time>
      </trkpt>
      <trkpt lat="46.62274" lon="-0.27037">
        <ele>157</ele>
        <time>2023-11-08T18:40:05Z</time>
      </trkpt>
      <trkpt lat="46.62219" lon="-0.27043">
        <ele>157</ele>
        <time>2023-11-08T18:41:19Z</time>
      </trkpt>
      <trkpt lat="46.62129" lon="-0.27008">
        <ele>157</ele>
        <time>2023-11-08T18:43:23Z</time>
      </trkpt>
      <trkpt lat="46.62113" lon="-0.26998">
        <ele>157</ele>
        <time>2023-11-08T18:43:46Z</time>
      </trkpt>
      <trkpt lat="46.62105" lon="-0.26974">
        <ele>157</ele>
        <time>2023-11-08T18:44:11Z</time>
      </trkpt>
      <trkpt lat="46.62101" lon="-0.26948">
        <ele>156</ele>
        <time>2023-11-08T18:44:35Z</time>
      </trkpt>
      <trkpt lat="46.62102" lon="-0.26893">
        <ele>155</ele>
        <time>2023-11-08T18:45:26Z</time>
      </trkpt>
      <trkpt lat="46.62098" lon="-0.2684">
        <ele>154</ele>
        <time>2023-11-08T18:46:15Z</time>
      </trkpt>
      <trkpt lat="46.6209" lon="-0.26816">
        <ele>154</ele>
        <time>2023-11-08T18:46:39Z</time>
      </trkpt>
      <trkpt lat="46.62042" lon="-0.26736">
        <ele>151</ele>
        <time>2023-11-08T18:48:16Z</time>
      </trkpt>
      <trkpt lat="46.62032" lon="-0.26712">
        <ele>151</ele>
        <time>2023-11-08T18:48:42Z</time>
      </trkpt>
      <trkpt lat="46.62012" lon="-0.26637">
        <ele>153</ele>
        <time>2023-11-08T18:49:56Z</time>
      </trkpt>
      <trkpt lat="46.61994" lon="-0.26591">
        <ele>155</ele>
        <time>2023-11-08T18:50:44Z</time>
      </trkpt>
      <trkpt lat="46.61957" lon="-0.26529">
        <ele>156</ele>
        <time>2023-11-08T18:52:00Z</time>
      </trkpt>
      <trkpt lat="46.61939" lon="-0.26533">
        <ele>156</ele>
        <time>2023-11-08T18:52:24Z</time>
      </trkpt>
      <trkpt lat="46.61924" lon="-0.26549">
        <ele>156</ele>
        <time>2023-11-08T18:52:49Z</time>
      </trkpt>
      <trkpt lat="46.6189" lon="-0.26571">
        <ele>157</ele>
        <time>2023-11-08T18:53:38Z</time>
      </trkpt>
      <trkpt lat="46.61841" lon="-0.2661">
        <ele>160</ele>
        <time>2023-11-08T18:54:53Z</time>
      </trkpt>
      <trkpt lat="46.61806" lon="-0.26628">
        <ele>162</ele>
        <time>2023-11-08T18:55:42Z</time>
      </trkpt>
      <trkpt lat="46.6166" lon="-0.2666">
        <ele>162</ele>
        <time>2023-11-08T18:58:59Z</time>
      </trkpt>
      <trkpt lat="46.61648" lon="-0.2664">
        <ele>161</ele>
        <time>2023-11-08T18:59:24Z</time>
      </trkpt>
      <trkpt lat="46.61648" lon="-0.26559">
        <ele>161</ele>
        <time>2023-11-08T19:00:38Z</time>
      </trkpt>
      <trkpt lat="46.61641" lon="-0.26508">
        <ele>160</ele>
        <time>2023-11-08T19:01:26Z</time>
      </trkpt>
      <trkpt lat="46.61641" lon="-0.26481">
        <ele>159</ele>
        <time>2023-11-08T19:01:50Z</time>
      </trkpt>
      <trkpt lat="46.61653" lon="-0.26401">
        <ele>157</ele>
        <time>2023-11-08T19:03:06Z</time>
      </trkpt>
      <trkpt lat="46.61652" lon="-0.26349">
        <ele>156</ele>
        <time>2023-11-08T19:03:53Z</time>
      </trkpt>
      <trkpt lat="46.61659" lon="-0.26324">
        <ele>156</ele>
        <time>2023-11-08T19:04:18Z</time>
      </trkpt>
      <trkpt lat="46.61716" lon="-0.26311">
        <ele>153</ele>
        <time>2023-11-08T19:05:35Z</time>
      </trkpt>
      <trkpt lat="46.61733" lon="-0.263">
        <ele>152</ele>
        <time>2023-11-08T19:06:00Z</time>
      </trkpt>
      <trkpt lat="46.61751" lon="-0.26294">
        <ele>151</ele>
        <time>2023-11-08T19:06:24Z</time>
      </trkpt>
      <trkpt lat="46.61781" lon="-0.26325">
        <ele>151</ele>
        <time>2023-11-08T19:07:13Z</time>
      </trkpt>
      <trkpt lat="46.61794" lon="-0.26343">
        <ele>151</ele>
        <time>2023-11-08T19:07:37Z</time>
      </trkpt>
      <trkpt lat="46.61824" lon="-0.26375">
        <ele>151</ele>
        <time>2023-11-08T19:08:27Z</time>
      </trkpt>
      <trkpt lat="46.61889" lon="-0.26427">
        <ele>153</ele>
        <time>2023-11-08T19:10:06Z</time>
      </trkpt>
      <trkpt lat="46.61917" lon="-0.26464">
        <ele>155</ele>
        <time>2023-11-08T19:10:56Z</time>
      </trkpt>
      <trkpt lat="46.61942" lon="-0.26504">
        <ele>156</ele>
        <time>2023-11-08T19:11:46Z</time>
      </trkpt>
      <trkpt lat="46.61958" lon="-0.26517">
        <ele>156</ele>
        <time>2023-11-08T19:12:11Z</time>
      </trkpt>
      <trkpt lat="46.62012" lon="-0.26493">
        <ele>155</ele>
        <time>2023-11-08T19:13:26Z</time>
      </trkpt>
      <trkpt lat="46.6203" lon="-0.26491">
        <ele>154</ele>
        <time>2023-11-08T19:13:50Z</time>
      </trkpt>
      <trkpt lat="46.62084" lon="-0.26504">
        <ele>152</ele>
        <time>2023-11-08T19:15:03Z</time>
      </trkpt>
      <trkpt lat="46.62122" lon="-0.26499">
        <ele>151</ele>
        <time>2023-11-08T19:15:54Z</time>
      </trkpt>
      <trkpt lat="46.62138" lon="-0.26488">
        <ele>150</ele>
        <time>2023-11-08T19:16:18Z</time>
      </trkpt>
      <trkpt lat="46.62156" lon="-0.2648">
        <ele>150</ele>
        <time>2023-11-08T19:16:43Z</time>
      </trkpt>
      <trkpt lat="46.62188" lon="-0.26453">
        <ele>148</ele>
        <time>2023-11-08T19:17:32Z</time>
      </trkpt>
      <trkpt lat="46.62214" lon="-0.26416">
        <ele>146</ele>
        <time>2023-11-08T19:18:21Z</time>
      </trkpt>
      <trkpt lat="46.62245" lon="-0.26386">
        <ele>142</ele>
        <time>2023-11-08T19:19:10Z</time>
      </trkpt>
      <trkpt lat="46.62283" lon="-0.26377">
        <ele>142</ele>
        <time>2023-11-08T19:20:02Z</time>
      </trkpt>
      <trkpt lat="46.623" lon="-0.26366">
        <ele>142</ele>
        <time>2023-11-08T19:20:26Z</time>
      </trkpt>
      <trkpt lat="46.62318" lon="-0.26359">
        <ele>142</ele>
        <time>2023-11-08T19:20:51Z</time>
      </trkpt>
      <trkpt lat="46.62334" lon="-0.26343">
        <ele>141</ele>
        <time>2023-11-08T19:21:17Z</time>
      </trkpt>
      <trkpt lat="46.62335" lon="-0.26317">
        <ele>142</ele>
        <time>2023-11-08T19:21:41Z</time>
      </trkpt>
      <trkpt lat="46.6228" lon="-0.26231">
        <ele>142</ele>
        <time>2023-11-08T19:23:29Z</time>
      </trkpt>
      <trkpt lat="46.62277" lon="-0.26205">
        <ele>143</ele>
        <time>2023-11-08T19:23:53Z</time>
      </trkpt>
      <trkpt lat="46.62282" lon="-0.26179">
        <ele>145</ele>
        <time>2023-11-08T19:24:18Z</time>
      </trkpt>
      <trkpt lat="46.62299" lon="-0.26168">
        <ele>146</ele>
        <time>2023-11-08T19:24:42Z</time>
      </trkpt>
      <trkpt lat="46.62336" lon="-0.2618">
        <ele>148</ele>
        <time>2023-11-08T19:25:33Z</time>
      </trkpt>
      <trkpt lat="46.62355" lon="-0.26182">
        <ele>149</ele>
        <time>2023-11-08T19:25:58Z</time>
      </trkpt>
      <trkpt lat="46.62447" lon="-0.26168">
        <ele>156</ele>
        <time>2023-11-08T19:28:02Z</time>
      </trkpt>
      <trkpt lat="46.62593" lon="-0.26128">
        <ele>163</ele>
        <time>2023-11-08T19:31:20Z</time>
      </trkpt>
      <trkpt lat="46.62668" lon="-0.26121">
        <ele>165</ele>
        <time>2023-11-08T19:33:00Z</time>
      </trkpt>
      <trkpt lat="46.62705" lon="-0.26123">
        <ele>164</ele>
        <time>2023-11-08T19:33:50Z</time>
      </trkpt>
      <trkpt lat="46.6276" lon="-0.26112">
        <ele>165</ele>
        <time>2023-11-08T19:35:04Z</time>
      </trkpt>
      <trkpt lat="46.62792" lon="-0.26085">
        <ele>165</ele>
        <time>2023-11-08T19:35:53Z</time>
      </trkpt>
      <trkpt lat="46.62849" lon="-0.26016">
        <ele>166</ele>
        <time>2023-11-08T19:37:32Z</time>
      </trkpt>
      <trkpt lat="46.62894" lon="-0.25968">
        <ele>166</ele>
        <time>2023-11-08T19:38:47Z</time>
      </trkpt>
      <trkpt lat="46.62973" lon="-0.25898">
        <ele>166</ele>
        <time>2023-11-08T19:40:50Z</time>
      </trkpt>
      <trkpt lat="46.63007" lon="-0.25876">
        <ele>165</ele>
        <time>2023-11-08T19:41:40Z</time>
      </trkpt>
      <trkpt lat="46.63025" lon="-0.25868">
        <ele>165</ele>
        <time>2023-11-08T19:42:05Z</time>
      </trkpt>
      <trkpt lat="46.63044" lon="-0.25865">
        <ele>164</ele>
        <time>2023-11-08T19:42:30Z</time>
      </trkpt>
      <trkpt lat="46.63081" lon="-0.25871">
        <ele>163</ele>
        <time>2023-11-08T19:43:20Z</time>
      </trkpt>
      <trkpt lat="46.63099" lon="-0.25868">
        <ele>163</ele>
        <time>2023-11-08T19:43:44Z</time>
      </trkpt>
      <trkpt lat="46.63113" lon="-0.25851">
        <ele>164</ele>
        <time>2023-11-08T19:44:08Z</time>
      </trkpt>
      <trkpt lat="46.63217" lon="-0.25793">
        <ele>166</ele>
        <time>2023-11-08T19:46:37Z</time>
      </trkpt>
      <trkpt lat="46.63308" lon="-0.25774">
        <ele>168</ele>
        <time>2023-11-08T19:48:40Z</time>
      </trkpt>
      <trkpt lat="46.63344" lon="-0.25777">
        <ele>168</ele>
        <time>2023-11-08T19:49:28Z</time>
      </trkpt>
      <trkpt lat="46.63363" lon="-0.25775">
        <ele>168</ele>
        <time>2023-11-08T19:49:53Z</time>
      </trkpt>
      <trkpt lat="46.63435" lon="-0.25757">
        <ele>168</ele>
        <time>2023-11-08T19:51:31Z</time>
      </trkpt>
      <trkpt lat="46.63471" lon="-0.25742">
        <ele>166</ele>
        <time>2023-11-08T19:52:21Z</time>
      </trkpt>
      <trkpt lat="46.63485" lon="-0.25724">
        <ele>166</ele>
        <time>2023-11-08T19:52:46Z</time>
      </trkpt>
      <trkpt lat="46.6352" lon="-0.2571">
        <ele>164</ele>
        <time>2023-11-08T19:53:34Z</time>
      </trkpt>
      <trkpt lat="46.63535" lon="-0.25694">
        <ele>163</ele>
        <time>2023-11-08T19:53:59Z</time>
      </trkpt>
      <trkpt lat="46.6355" lon="-0.2571">
        <ele>163</ele>
        <time>2023-11-08T19:54:24Z</time>
      </trkpt>
      <trkpt lat="46.63583" lon="-0.25734">
        <ele>162</ele>
        <time>2023-11-08T19:55:13Z</time>
      </trkpt>
      <trkpt lat="46.636" lon="-0.25743">
        <ele>161</ele>
        <time>2023-11-08T19:55:37Z</time>
      </trkpt>
      <trkpt lat="46.63616" lon="-0.25758">
        <ele>160</ele>
        <time>2023-11-08T19:56:03Z</time>
      </trkpt>
      <trkpt lat="46.63632" lon="-0.25769">
        <ele>160</ele>
        <time>2023-11-08T19:56:26Z</time>
      </trkpt>
      <trkpt lat="46.6365" lon="-0.25778">
        <ele>159</ele>
        <time>2023-11-08T19:56:52Z</time>
      </trkpt>
      <trkpt lat="46.63686" lon="-0.25791">
        <ele>158</ele>
        <time>2023-11-08T19:57:41Z</time>
      </trkpt>
      <trkpt lat="46.63738" lon="-0.25825">
        <ele>156</ele>
        <time>2023-11-08T19:58:57Z</time>
      </trkpt>
      <trkpt lat="46.63752" lon="-0.25841">
        <ele>156</ele>
        <time>2023-11-08T19:59:21Z</time>
      </trkpt>
      <trkpt lat="46.63789" lon="-0.25838">
        <ele>153</ele>
        <time>2023-11-08T20:00:10Z</time>
      </trkpt>
      <trkpt lat="46.63807" lon="-0.25844">
        <ele>152</ele>
        <time>2023-11-08T20:00:35Z</time>
      </trkpt>
      <trkpt lat="46.63825" lon="-0.25838">
        <ele>151</ele>
        <time>2023-11-08T20:01:00Z</time>
      </trkpt>
      <trkpt lat="46.63841" lon="-0.25824">
        <ele>150</ele>
        <time>2023-11-08T20:01:24Z</time>
      </trkpt>
      <trkpt lat="46.63858" lon="-0.25815">
        <ele>149</ele>
        <time>2023-11-08T20:01:49Z</time>
      </trkpt>
      <trkpt lat="46.63877" lon="-0.25815">
        <ele>149</ele>
        <time>2023-11-08T20:02:14Z</time>
      </trkpt>
      <trkpt lat="46.63888" lon="-0.25836">
        <ele>148</ele>
        <time>2023-11-08T20:02:38Z</time>
      </trkpt>
      <trkpt lat="46.63893" lon="-0.25862">
        <ele>149</ele>
        <time>2023-11-08T20:03:03Z</time>
      </trkpt>
      <trkpt lat="46.63893" lon="-0.25889">
        <ele>149</ele>
        <time>2023-11-08T20:03:28Z</time>
      </trkpt>
      <trkpt lat="46.63899" lon="-0.25943">
        <ele>150</ele>
        <time>2023-11-08T20:04:18Z</time>
      </trkpt>
      <trkpt lat="46.6391" lon="-0.25965">
        <ele>149</ele>
        <time>2023-11-08T20:04:43Z</time>
      </trkpt>
      <trkpt lat="46.63933" lon="-0.26038">
        <ele>147</ele>
        <time>2023-11-08T20:05:56Z</time>
      </trkpt>
      <trkpt lat="46.63966" lon="-0.26105">
        <ele>144</ele>
        <time>2023-11-08T20:07:12Z</time>
      </trkpt>
      <trkpt lat="46.63974" lon="-0.2613">
        <ele>143</ele>
        <time>2023-11-08T20:07:37Z</time>
      </trkpt>
      <trkpt lat="46.63979" lon="-0.26156">
        <ele>142</ele>
        <time>2023-11-08T20:08:02Z</time>
      </trkpt>
      <trkpt lat="46.63974" lon="-0.26209">
        <ele>141</ele>
        <time>2023-11-08T20:08:51Z</time>
      </trkpt>
      <trkpt lat="46.63963" lon="-0.26231">
        <ele>140</ele>
        <time>2023-11-08T20:09:16Z</time>
      </trkpt>
      <trkpt lat="46.63955" lon="-0.26256">
        <ele>139</ele>
        <time>2023-11-08T20:09:41Z</time>
      </trkpt>
      <trkpt lat="46.63952" lon="-0.26282">
        <ele>138</ele>
        <time>2023-11-08T20:10:05Z</time>
      </trkpt>
      <trkpt lat="46.63964" lon="-0.26304">
        <ele>137</ele>
        <time>2023-11-08T20:10:31Z</time>
      </trkpt>
      <trkpt lat="46.63981" lon="-0.26315">
        <ele>137</ele>
        <time>2023-11-08T20:10:56Z</time>
      </trkpt>
      <trkpt lat="46.64005" lon="-0.26389">
        <ele>133</ele>
        <time>2023-11-08T20:12:11Z</time>
      </trkpt>
      <trkpt lat="46.64004" lon="-0.26442">
        <ele>132</ele>
        <time>2023-11-08T20:12:59Z</time>
      </trkpt>
      <trkpt lat="46.63986" lon="-0.26488">
        <ele>131</ele>
        <time>2023-11-08T20:13:48Z</time>
      </trkpt>
      <trkpt lat="46.6398" lon="-0.26542">
        <ele>133</ele>
        <time>2023-11-08T20:14:38Z</time>
      </trkpt>
      <trkpt lat="46.63994" lon="-0.26559">
        <ele>134</ele>
        <time>2023-11-08T20:15:02Z</time>
      </trkpt>
      <trkpt lat="46.6401" lon="-0.26572">
        <ele>134</ele>
        <time>2023-11-08T20:15:27Z</time>
      </trkpt>
      <trkpt lat="46.63987" lon="-0.26546">
        <ele>133</ele>
        <time>2023-11-08T20:16:06Z</time>
      </trkpt>
      <trkpt lat="46.63989" lon="-0.26493">
        <ele>131</ele>
        <time>2023-11-08T20:16:54Z</time>
      </trkpt>
      <trkpt lat="46.63998" lon="-0.2647">
        <ele>131</ele>
        <time>2023-11-08T20:17:18Z</time>
      </trkpt>
      <trkpt lat="46.64033" lon="-0.26489">
        <ele>131</ele>
        <time>2023-11-08T20:18:08Z</time>
      </trkpt>
      <trkpt lat="46.64069" lon="-0.26486">
        <ele>131</ele>
        <time>2023-11-08T20:18:56Z</time>
      </trkpt>
      <trkpt lat="46.64086" lon="-0.26473">
        <ele>131</ele>
        <time>2023-11-08T20:19:22Z</time>
      </trkpt>
      <trkpt lat="46.64091" lon="-0.26445">
        <ele>131</ele>
        <time>2023-11-08T20:19:49Z</time>
      </trkpt>
      <trkpt lat="46.6411" lon="-0.26449">
        <ele>131</ele>
        <time>2023-11-08T20:20:14Z</time>
      </trkpt>
      <trkpt lat="46.64127" lon="-0.26439">
        <ele>131</ele>
        <time>2023-11-08T20:20:39Z</time>
      </trkpt>
      <trkpt lat="46.64158" lon="-0.26409">
        <ele>132</ele>
        <time>2023-11-08T20:21:28Z</time>
      </trkpt>
      <trkpt lat="46.64187" lon="-0.26376">
        <ele>132</ele>
        <time>2023-11-08T20:22:17Z</time>
      </trkpt>
      <trkpt lat="46.64205" lon="-0.26366">
        <ele>132</ele>
        <time>2023-11-08T20:22:43Z</time>
      </trkpt>
      <trkpt lat="46.64223" lon="-0.26361">
        <ele>133</ele>
        <time>2023-11-08T20:23:08Z</time>
      </trkpt>
      <trkpt lat="46.64242" lon="-0.26359">
        <ele>133</ele>
        <time>2023-11-08T20:23:33Z</time>
      </trkpt>
      <trkpt lat="46.64261" lon="-0.26361">
        <ele>133</ele>
        <time>2023-11-08T20:23:58Z</time>
      </trkpt>
      <trkpt lat="46.64279" lon="-0.26366">
        <ele>133</ele>
        <time>2023-11-08T20:24:23Z</time>
      </trkpt>
      <trkpt lat="46.64316" lon="-0.26369">
        <ele>134</ele>
        <time>2023-11-08T20:25:12Z</time>
      </trkpt>
      <trkpt lat="46.64354" lon="-0.26365">
        <ele>134</ele>
        <time>2023-11-08T20:26:03Z</time>
      </trkpt>
      <trkpt lat="46.64406" lon="-0.26396">
        <ele>134</ele>
        <time>2023-11-08T20:27:18Z</time>
      </trkpt>
      <trkpt lat="46.64421" lon="-0.26381">
        <ele>135</ele>
        <time>2023-11-08T20:27:42Z</time>
      </trkpt>
      <trkpt lat="46.64457" lon="-0.26367">
        <ele>135</ele>
        <time>2023-11-08T20:28:32Z</time>
      </trkpt>
      <trkpt lat="46.64474" lon="-0.26378">
        <ele>136</ele>
        <time>2023-11-08T20:28:57Z</time>
      </trkpt>
      <trkpt lat="46.64492" lon="-0.26376">
        <ele>136</ele>
        <time>2023-11-08T20:29:21Z</time>
      </trkpt>
      <trkpt lat="46.64508" lon="-0.26361">
        <ele>137</ele>
        <time>2023-11-08T20:29:46Z</time>
      </trkpt>
      <trkpt lat="46.64521" lon="-0.26343">
        <ele>136</ele>
        <time>2023-11-08T20:30:10Z</time>
      </trkpt>
      <trkpt lat="46.64535" lon="-0.26291">
        <ele>138</ele>
        <time>2023-11-08T20:31:02Z</time>
      </trkpt>
      <trkpt lat="46.64544" lon="-0.26267">
        <ele>138</ele>
        <time>2023-11-08T20:31:27Z</time>
      </trkpt>
      <trkpt lat="46.64547" lon="-0.26241">
        <ele>139</ele>
        <time>2023-11-08T20:31:51Z</time>
      </trkpt>
      <trkpt lat="46.64545" lon="-0.26214">
        <ele>140</ele>
        <time>2023-11-08T20:32:16Z</time>
      </trkpt>
      <trkpt lat="46.64547" lon="-0.2616">
        <ele>141</ele>
        <time>2023-11-08T20:33:05Z</time>
      </trkpt>
      <trkpt lat="46.64552" lon="-0.26106">
        <ele>141</ele>
        <time>2023-11-08T20:33:55Z</time>
      </trkpt>
      <trkpt lat="46.64568" lon="-0.26027">
        <ele>142</ele>
        <time>2023-11-08T20:35:11Z</time>
      </trkpt>
      <trkpt lat="46.64568" lon="-0.26">
        <ele>142</ele>
        <time>2023-11-08T20:35:35Z</time>
      </trkpt>
      <trkpt lat="46.64559" lon="-0.25946">
        <ele>143</ele>
        <time>2023-11-08T20:36:26Z</time>
      </trkpt>
      <trkpt lat="46.64557" lon="-0.25918">
        <ele>144</ele>
        <time>2023-11-08T20:36:52Z</time>
      </trkpt>
      <trkpt lat="46.64561" lon="-0.25892">
        <ele>144</ele>
        <time>2023-11-08T20:37:16Z</time>
      </trkpt>
      <trkpt lat="46.64562" lon="-0.25865">
        <ele>145</ele>
        <time>2023-11-08T20:37:41Z</time>
      </trkpt>
      <trkpt lat="46.64571" lon="-0.25841">
        <ele>145</ele>
        <time>2023-11-08T20:38:06Z</time>
      </trkpt>
      <trkpt lat="46.64587" lon="-0.25763">
        <ele>141</ele>
        <time>2023-11-08T20:39:21Z</time>
      </trkpt>
      <trkpt lat="46.64604" lon="-0.25632">
        <ele>143</ele>
        <time>2023-11-08T20:41:23Z</time>
      </trkpt>
      <trkpt lat="46.64618" lon="-0.25583">
        <ele>142</ele>
        <time>2023-11-08T20:42:12Z</time>
      </trkpt>
      <trkpt lat="46.64647" lon="-0.25513">
        <ele>144</ele>
        <time>2023-11-08T20:43:27Z</time>
      </trkpt>
      <trkpt lat="46.6467" lon="-0.25473">
        <ele>145</ele>
        <time>2023-11-08T20:44:14Z</time>
      </trkpt>
      <trkpt lat="46.64679" lon="-0.2545">
        <ele>146</ele>
        <time>2023-11-08T20:44:39Z</time>
      </trkpt>
      <trkpt lat="46.64702" lon="-0.25407">
        <ele>146</ele>
        <time>2023-11-08T20:45:28Z</time>
      </trkpt>
      <trkpt lat="46.64715" lon="-0.25385">
        <ele>145</ele>
        <time>2023-11-08T20:45:55Z</time>
      </trkpt>
      <trkpt lat="46.6473" lon="-0.25369">
        <ele>143</ele>
        <time>2023-11-08T20:46:20Z</time>
      </trkpt>
      <trkpt lat="46.64748" lon="-0.25365">
        <ele>140</ele>
        <time>2023-11-08T20:46:44Z</time>
      </trkpt>
      <trkpt lat="46.64765" lon="-0.25354">
        <ele>140</ele>
        <time>2023-11-08T20:47:09Z</time>
      </trkpt>
      <trkpt lat="46.64787" lon="-0.25311">
        <ele>145</ele>
        <time>2023-11-08T20:47:58Z</time>
      </trkpt>
      <trkpt lat="46.64805" lon="-0.25302">
        <ele>146</ele>
        <time>2023-11-08T20:48:24Z</time>
      </trkpt>
      <trkpt lat="46.64825" lon="-0.25307">
        <ele>144</ele>
        <time>2023-11-08T20:48:51Z</time>
      </trkpt>
      <trkpt lat="46.64837" lon="-0.25256">
        <ele>155</ele>
        <time>2023-11-08T20:49:40Z</time>
      </trkpt>
      <trkpt lat="46.64846" lon="-0.25202">
        <ele>162</ele>
        <time>2023-11-08T20:50:31Z</time>
      </trkpt>
      <trkpt lat="46.64841" lon="-0.25176">
        <ele>165</ele>
        <time>2023-11-08T20:50:56Z</time>
      </trkpt>
      <trkpt lat="46.64858" lon="-0.25185">
        <ele>163</ele>
        <time>2023-11-08T20:51:20Z</time>
      </trkpt>
      <trkpt lat="46.64863" lon="-0.25211">
        <ele>159</ele>
        <time>2023-11-08T20:51:45Z</time>
      </trkpt>
      <trkpt lat="46.64862" lon="-0.25238">
        <ele>156</ele>
        <time>2023-11-08T20:52:09Z</time>
      </trkpt>
      <trkpt lat="46.6487" lon="-0.25214">
        <ele>158</ele>
        <time>2023-11-08T20:52:34Z</time>
      </trkpt>
      <trkpt lat="46.64867" lon="-0.25188">
        <ele>162</ele>
        <time>2023-11-08T20:52:58Z</time>
      </trkpt>
      <trkpt lat="46.64886" lon="-0.25142">
        <ele>163</ele>
        <time>2023-11-08T20:53:47Z</time>
      </trkpt>
      <trkpt lat="46.64887" lon="-0.25115">
        <ele>161</ele>
        <time>2023-11-08T20:54:12Z</time>
      </trkpt>
      <trkpt lat="46.64917" lon="-0.25082">
        <ele>158</ele>
        <time>2023-11-08T20:55:02Z</time>
      </trkpt>
      <trkpt lat="46.64906" lon="-0.25135">
        <ele>161</ele>
        <time>2023-11-08T20:55:53Z</time>
      </trkpt>
      <trkpt lat="46.6489" lon="-0.25152">
        <ele>163</ele>
        <time>2023-11-08T20:56:19Z</time>
      </trkpt>
      <trkpt lat="46.64887" lon="-0.25178">
        <ele>162</ele>
        <time>2023-11-08T20:56:43Z</time>
      </trkpt>
      <trkpt lat="46.64902" lon="-0.25194">
        <ele>159</ele>
        <time>2023-11-08T20:57:08Z</time>
      </trkpt>
      <trkpt lat="46.6492" lon="-0.25189">
        <ele>158</ele>
        <time>2023-11-08T20:57:33Z</time>
      </trkpt>
      <trkpt lat="46.64937" lon="-0.2518">
        <ele>160</ele>
        <time>2023-11-08T20:57:57Z</time>
      </trkpt>
      <trkpt lat="46.64944" lon="-0.25154">
        <ele>161</ele>
        <time>2023-11-08T20:58:22Z</time>
      </trkpt>
      <trkpt lat="46.64936" lon="-0.25129">
        <ele>160</ele>
        <time>2023-11-08T20:58:48Z</time>
      </trkpt>
      <trkpt lat="46.64941" lon="-0.25103">
        <ele>159</ele>
        <time>2023-11-08T20:59:12Z</time>
      </trkpt>
      <trkpt lat="46.6494" lon="-0.25076">
        <ele>158</ele>
        <time>2023-11-08T20:59:37Z</time>
      </trkpt>
      <trkpt lat="46.64934" lon="-0.25101">
        <ele>159</ele>
        <time>2023-11-08T21:00:01Z</time>
      </trkpt>
      <trkpt lat="46.64938" lon="-0.2518">
        <ele>160</ele>
        <time>2023-11-08T21:01:14Z</time>
      </trkpt>
      <trkpt lat="46.64956" lon="-0.25179">
        <ele>159</ele>
        <time>2023-11-08T21:01:38Z</time>
      </trkpt>
      <trkpt lat="46.64964" lon="-0.25154">
        <ele>160</ele>
        <time>2023-11-08T21:02:03Z</time>
      </trkpt>
      <trkpt lat="46.64982" lon="-0.25159">
        <ele>160</ele>
        <time>2023-11-08T21:02:28Z</time>
      </trkpt>
      <trkpt lat="46.64999" lon="-0.25149">
        <ele>160</ele>
        <time>2023-11-08T21:02:52Z</time>
      </trkpt>
      <trkpt lat="46.65015" lon="-0.25133">
        <ele>158</ele>
        <time>2023-11-08T21:03:18Z</time>
      </trkpt>
      <trkpt lat="46.65018" lon="-0.25159">
        <ele>159</ele>
        <time>2023-11-08T21:03:42Z</time>
      </trkpt>
      <trkpt lat="46.65054" lon="-0.25154">
        <ele>157</ele>
        <time>2023-11-08T21:04:30Z</time>
      </trkpt>
      <trkpt lat="46.65076" lon="-0.25155">
        <ele>156</ele>
        <time>2023-11-08T21:05:00Z</time>
      </trkpt>
      <trkpt lat="46.65094" lon="-0.25159">
        <ele>155</ele>
        <time>2023-11-08T21:05:24Z</time>
      </trkpt>
      <trkpt lat="46.65112" lon="-0.25156">
        <ele>152</ele>
        <time>2023-11-08T21:05:48Z</time>
      </trkpt>
      <trkpt lat="46.6513" lon="-0.25149">
        <ele>150</ele>
        <time>2023-11-08T21:06:13Z</time>
      </trkpt>
      <trkpt lat="46.65148" lon="-0.2515">
        <ele>148</ele>
        <time>2023-11-08T21:06:37Z</time>
      </trkpt>
      <trkpt lat="46.65167" lon="-0.25142">
        <ele>145</ele>
        <time>2023-11-08T21:07:04Z</time>
      </trkpt>
      <trkpt lat="46.65175" lon="-0.25165">
        <ele>146</ele>
        <time>2023-11-08T21:07:27Z</time>
      </trkpt>
      <trkpt lat="46.65193" lon="-0.25171">
        <ele>144</ele>
        <time>2023-11-08T21:07:52Z</time>
      </trkpt>
      <trkpt lat="46.65229" lon="-0.25171">
        <ele>140</ele>
        <time>2023-11-08T21:08:40Z</time>
      </trkpt>
      <trkpt lat="46.65211" lon="-0.25177">
        <ele>142</ele>
        <time>2023-11-08T21:09:04Z</time>
      </trkpt>
      <trkpt lat="46.65194" lon="-0.25168">
        <ele>144</ele>
        <time>2023-11-08T21:09:29Z</time>
      </trkpt>
      <trkpt lat="46.65176" lon="-0.25164">
        <ele>146</ele>
        <time>2023-11-08T21:09:53Z</time>
      </trkpt>
      <trkpt lat="46.65167" lon="-0.25138">
        <ele>145</ele>
        <time>2023-11-08T21:10:20Z</time>
      </trkpt>
      <trkpt lat="46.65175" lon="-0.25114">
        <ele>142</ele>
        <time>2023-11-08T21:10:44Z</time>
      </trkpt>
      <trkpt lat="46.65193" lon="-0.2511">
        <ele>140</ele>
        <time>2023-11-08T21:11:08Z</time>
      </trkpt>
      <trkpt lat="46.65183" lon="-0.25087">
        <ele>139</ele>
        <time>2023-11-08T21:11:33Z</time>
      </trkpt>
      <trkpt lat="46.65168" lon="-0.25069">
        <ele>139</ele>
        <time>2023-11-08T21:11:59Z</time>
      </trkpt>
      <trkpt lat="46.65151" lon="-0.25058">
        <ele>141</ele>
        <time>2023-11-08T21:12:24Z</time>
      </trkpt>
      <trkpt lat="46.65104" lon="-0.25015">
        <ele>144</ele>
        <time>2023-11-08T21:13:38Z</time>
      </trkpt>
      <trkpt lat="46.65087" lon="-0.25005">
        <ele>145</ele>
        <time>2023-11-08T21:14:03Z</time>
      </trkpt>
      <trkpt lat="46.65074" lon="-0.24987">
        <ele>146</ele>
        <time>2023-11-08T21:14:26Z</time>
      </trkpt>
      <trkpt lat="46.65111" lon="-0.24971">
        <ele>143</ele>
        <time>2023-11-08T21:15:18Z</time>
      </trkpt>
      <trkpt lat="46.65126" lon="-0.24956">
        <ele>142</ele>
        <time>2023-11-08T21:15:42Z</time>
      </trkpt>
      <trkpt lat="46.65144" lon="-0.24956">
        <ele>139</ele>
        <time>2023-11-08T21:16:06Z</time>
      </trkpt>
      <trkpt lat="46.65162" lon="-0.2496">
        <ele>137</ele>
        <time>2023-11-08T21:16:31Z</time>
      </trkpt>
      <trkpt lat="46.65219" lon="-0.2494">
        <ele>133</ele>
        <time>2023-11-08T21:17:49Z</time>
      </trkpt>
      <trkpt lat="46.65239" lon="-0.24928">
        <ele>132</ele>
        <time>2023-11-08T21:18:18Z</time>
      </trkpt>
      <trkpt lat="46.65222" lon="-0.24933">
        <ele>133</ele>
        <time>2023-11-08T21:18:41Z</time>
      </trkpt>
      <trkpt lat="46.65206" lon="-0.24947">
        <ele>134</ele>
        <time>2023-11-08T21:19:06Z</time>
      </trkpt>
      <trkpt lat="46.65216" lon="-0.24896">
        <ele>134</ele>
        <time>2023-11-08T21:19:54Z</time>
      </trkpt>
      <trkpt lat="46.65217" lon="-0.24869">
        <ele>134</ele>
        <time>2023-11-08T21:20:19Z</time>
      </trkpt>
      <trkpt lat="46.65221" lon="-0.24843">
        <ele>134</ele>
        <time>2023-11-08T21:20:44Z</time>
      </trkpt>
      <trkpt lat="46.65216" lon="-0.24816">
        <ele>135</ele>
        <time>2023-11-08T21:21:09Z</time>
      </trkpt>
      <trkpt lat="46.65239" lon="-0.24775">
        <ele>134</ele>
        <time>2023-11-08T21:21:58Z</time>
      </trkpt>
      <trkpt lat="46.6525" lon="-0.24697">
        <ele>139</ele>
        <time>2023-11-08T21:23:11Z</time>
      </trkpt>
      <trkpt lat="46.65267" lon="-0.24686">
        <ele>139</ele>
        <time>2023-11-08T21:23:35Z</time>
      </trkpt>
      <trkpt lat="46.65286" lon="-0.24684">
        <ele>138</ele>
        <time>2023-11-08T21:24:01Z</time>
      </trkpt>
      <trkpt lat="46.65303" lon="-0.24693">
        <ele>136</ele>
        <time>2023-11-08T21:24:25Z</time>
      </trkpt>
      <trkpt lat="46.65322" lon="-0.24693">
        <ele>135</ele>
        <time>2023-11-08T21:24:50Z</time>
      </trkpt>
      <trkpt lat="46.65339" lon="-0.24683">
        <ele>134</ele>
        <time>2023-11-08T21:25:15Z</time>
      </trkpt>
      <trkpt lat="46.65357" lon="-0.24678">
        <ele>134</ele>
        <time>2023-11-08T21:25:39Z</time>
      </trkpt>
      <trkpt lat="46.65375" lon="-0.24668">
        <ele>134</ele>
        <time>2023-11-08T21:26:05Z</time>
      </trkpt>
      <trkpt lat="46.65428" lon="-0.24648">
        <ele>136</ele>
        <time>2023-11-08T21:27:18Z</time>
      </trkpt>
      <trkpt lat="46.65446" lon="-0.2464">
        <ele>137</ele>
        <time>2023-11-08T21:27:43Z</time>
      </trkpt>
      <trkpt lat="46.65479" lon="-0.24614">
        <ele>138</ele>
        <time>2023-11-08T21:28:33Z</time>
      </trkpt>
      <trkpt lat="46.65493" lon="-0.24598">
        <ele>139</ele>
        <time>2023-11-08T21:28:57Z</time>
      </trkpt>
      <trkpt lat="46.6551" lon="-0.24585">
        <ele>139</ele>
        <time>2023-11-08T21:29:23Z</time>
      </trkpt>
      <trkpt lat="46.65526" lon="-0.24574">
        <ele>139</ele>
        <time>2023-11-08T21:29:46Z</time>
      </trkpt>
      <trkpt lat="46.65545" lon="-0.24566">
        <ele>138</ele>
        <time>2023-11-08T21:30:13Z</time>
      </trkpt>
      <trkpt lat="46.6556" lon="-0.24548">
        <ele>137</ele>
        <time>2023-11-08T21:30:38Z</time>
      </trkpt>
      <trkpt lat="46.65579" lon="-0.24501">
        <ele>134</ele>
        <time>2023-11-08T21:31:28Z</time>
      </trkpt>
      <trkpt lat="46.65614" lon="-0.24438">
        <ele>135</ele>
        <time>2023-11-08T21:32:43Z</time>
      </trkpt>
      <trkpt lat="46.65633" lon="-0.24392">
        <ele>135</ele>
        <time>2023-11-08T21:33:32Z</time>
      </trkpt>
      <trkpt lat="46.65664" lon="-0.24359">
        <ele>133</ele>
        <time>2023-11-08T21:34:23Z</time>
      </trkpt>
      <trkpt lat="46.65677" lon="-0.2434">
        <ele>134</ele>
        <time>2023-11-08T21:34:48Z</time>
      </trkpt>
      <trkpt lat="46.65687" lon="-0.24318">
        <ele>134</ele>
        <time>2023-11-08T21:35:12Z</time>
      </trkpt>
      <trkpt lat="46.657" lon="-0.2421">
        <ele>133</ele>
        <time>2023-11-08T21:36:52Z</time>
      </trkpt>
      <trkpt lat="46.65692" lon="-0.24129">
        <ele>131</ele>
        <time>2023-11-08T21:38:07Z</time>
      </trkpt>
      <trkpt lat="46.65694" lon="-0.24103">
        <ele>131</ele>
        <time>2023-11-08T21:38:31Z</time>
      </trkpt>
      <trkpt lat="46.65692" lon="-0.24075">
        <ele>130</ele>
        <time>2023-11-08T21:38:57Z</time>
      </trkpt>
      <trkpt lat="46.65693" lon="-0.24047">
        <ele>131</ele>
        <time>2023-11-08T21:39:23Z</time>
      </trkpt>
      <trkpt lat="46.65704" lon="-0.23966">
        <ele>133</ele>
        <time>2023-11-08T21:40:38Z</time>
      </trkpt>
      <trkpt lat="46.65721" lon="-0.23979">
        <ele>132</ele>
        <time>2023-11-08T21:41:04Z</time>
      </trkpt>
      <trkpt lat="46.65759" lon="-0.23977">
        <ele>132</ele>
        <time>2023-11-08T21:41:55Z</time>
      </trkpt>
      <trkpt lat="46.65747" lon="-0.23997">
        <ele>131</ele>
        <time>2023-11-08T21:42:19Z</time>
      </trkpt>
      <trkpt lat="46.65746" lon="-0.2403">
        <ele>132</ele>
        <time>2023-11-08T21:42:49Z</time>
      </trkpt>
      <trkpt lat="46.65741" lon="-0.23958">
        <ele>131</ele>
        <time>2023-11-08T21:43:55Z</time>
      </trkpt>
      <trkpt lat="46.65711" lon="-0.23925">
        <ele>134</ele>
        <time>2023-11-08T21:44:46Z</time>
      </trkpt>
      <trkpt lat="46.65693" lon="-0.23873">
        <ele>139</ele>
        <time>2023-11-08T21:45:39Z</time>
      </trkpt>
      <trkpt lat="46.65713" lon="-0.23827">
        <ele>139</ele>
        <time>2023-11-08T21:46:29Z</time>
      </trkpt>
      <trkpt lat="46.65748" lon="-0.23722">
        <ele>140</ele>
        <time>2023-11-08T21:48:16Z</time>
      </trkpt>
      <trkpt lat="46.65753" lon="-0.23666">
        <ele>143</ele>
        <time>2023-11-08T21:49:08Z</time>
      </trkpt>
      <trkpt lat="46.65736" lon="-0.23614">
        <ele>146</ele>
        <time>2023-11-08T21:50:00Z</time>
      </trkpt>
      <trkpt lat="46.65714" lon="-0.23566">
        <ele>150</ele>
        <time>2023-11-08T21:50:53Z</time>
      </trkpt>
      <trkpt lat="46.65717" lon="-0.2351">
        <ele>149</ele>
        <time>2023-11-08T21:51:45Z</time>
      </trkpt>
      <trkpt lat="46.65705" lon="-0.23455">
        <ele>152</ele>
        <time>2023-11-08T21:52:37Z</time>
      </trkpt>
      <trkpt lat="46.65679" lon="-0.23418">
        <ele>160</ele>
        <time>2023-11-08T21:53:26Z</time>
      </trkpt>
      <trkpt lat="46.6567" lon="-0.23364">
        <ele>162</ele>
        <time>2023-11-08T21:54:17Z</time>
      </trkpt>
      <trkpt lat="46.65653" lon="-0.23327">
        <ele>161</ele>
        <time>2023-11-08T21:54:58Z</time>
      </trkpt>
      <trkpt lat="46.65621" lon="-0.23296">
        <ele>156</ele>
        <time>2023-11-08T21:55:49Z</time>
      </trkpt>
      <trkpt lat="46.65581" lon="-0.23304">
        <ele>157</ele>
        <time>2023-11-08T21:56:43Z</time>
      </trkpt>
      <trkpt lat="46.65533" lon="-0.23319">
        <ele>154</ele>
        <time>2023-11-08T21:57:48Z</time>
      </trkpt>
      <trkpt lat="46.65505" lon="-0.2336">
        <ele>154</ele>
        <time>2023-11-08T21:58:41Z</time>
      </trkpt>
      <trkpt lat="46.65413" lon="-0.23468">
        <ele>154</ele>
        <time>2023-11-08T22:01:19Z</time>
      </trkpt>
      <trkpt lat="46.65402" lon="-0.23414">
        <ele>153</ele>
        <time>2023-11-08T22:02:11Z</time>
      </trkpt>
      <trkpt lat="46.65415" lon="-0.23361">
        <ele>154</ele>
        <time>2023-11-08T22:03:02Z</time>
      </trkpt>
      <trkpt lat="46.65439" lon="-0.23313">
        <ele>154</ele>
        <time>2023-11-08T22:03:56Z</time>
      </trkpt>
      <trkpt lat="46.6548" lon="-0.23215">
        <ele>154</ele>
        <time>2023-11-08T22:05:42Z</time>
      </trkpt>
      <trkpt lat="46.65529" lon="-0.23126">
        <ele>153</ele>
        <time>2023-11-08T22:07:26Z</time>
      </trkpt>
      <trkpt lat="46.6556" lon="-0.2309">
        <ele>151</ele>
        <time>2023-11-08T22:08:19Z</time>
      </trkpt>
      <trkpt lat="46.65561" lon="-0.23032">
        <ele>150</ele>
        <time>2023-11-08T22:09:12Z</time>
      </trkpt>
      <trkpt lat="46.65537" lon="-0.22917">
        <ele>147</ele>
        <time>2023-11-08T22:11:02Z</time>
      </trkpt>
      <trkpt lat="46.65497" lon="-0.22908">
        <ele>151</ele>
        <time>2023-11-08T22:11:56Z</time>
      </trkpt>
      <trkpt lat="46.65458" lon="-0.22909">
        <ele>153</ele>
        <time>2023-11-08T22:12:48Z</time>
      </trkpt>
      <trkpt lat="46.65473" lon="-0.22858">
        <ele>151</ele>
        <time>2023-11-08T22:13:39Z</time>
      </trkpt>
      <trkpt lat="46.65466" lon="-0.22803">
        <ele>151</ele>
        <time>2023-11-08T22:14:30Z</time>
      </trkpt>
      <trkpt lat="46.65434" lon="-0.22773">
        <ele>155</ele>
        <time>2023-11-08T22:15:21Z</time>
      </trkpt>
      <trkpt lat="46.65418" lon="-0.22724">
        <ele>157</ele>
        <time>2023-11-08T22:16:11Z</time>
      </trkpt>
      <trkpt lat="46.65406" lon="-0.22668">
        <ele>159</ele>
        <time>2023-11-08T22:17:05Z</time>
      </trkpt>
      <trkpt lat="46.65412" lon="-0.22612">
        <ele>158</ele>
        <time>2023-11-08T22:17:57Z</time>
      </trkpt>
      <trkpt lat="46.65442" lon="-0.22575">
        <ele>153</ele>
        <time>2023-11-08T22:18:49Z</time>
      </trkpt>
      <trkpt lat="46.65464" lon="-0.22526">
        <ele>149</ele>
        <time>2023-11-08T22:19:43Z</time>
      </trkpt>
      <trkpt lat="46.65449" lon="-0.22472">
        <ele>149</ele>
        <time>2023-11-08T22:20:36Z</time>
      </trkpt>
      <trkpt lat="46.65521" lon="-0.22436">
        <ele>139</ele>
        <time>2023-11-08T22:22:18Z</time>
      </trkpt>
      <trkpt lat="46.65531" lon="-0.22384">
        <ele>137</ele>
        <time>2023-11-08T22:23:07Z</time>
      </trkpt>
      <trkpt lat="46.65526" lon="-0.22326">
        <ele>139</ele>
        <time>2023-11-08T22:24:01Z</time>
      </trkpt>
      <trkpt lat="46.65526" lon="-0.22418">
        <ele>138</ele>
        <time>2023-11-08T22:25:25Z</time>
      </trkpt>
      <trkpt lat="46.65496" lon="-0.22448">
        <ele>143</ele>
        <time>2023-11-08T22:26:13Z</time>
      </trkpt>
      <trkpt lat="46.6546" lon="-0.2245">
        <ele>147</ele>
        <time>2023-11-08T22:27:01Z</time>
      </trkpt>
      <trkpt lat="46.6545" lon="-0.225">
        <ele>150</ele>
        <time>2023-11-08T22:27:49Z</time>
      </trkpt>
      <trkpt lat="46.65446" lon="-0.22553">
        <ele>152</ele>
        <time>2023-11-08T22:28:38Z</time>
      </trkpt>
      <trkpt lat="46.65429" lon="-0.22603">
        <ele>156</ele>
        <time>2023-11-08T22:29:29Z</time>
      </trkpt>
      <trkpt lat="46.65407" lon="-0.22647">
        <ele>159</ele>
        <time>2023-11-08T22:30:19Z</time>
      </trkpt>
      <trkpt lat="46.65408" lon="-0.22706">
        <ele>158</ele>
        <time>2023-11-08T22:31:13Z</time>
      </trkpt>
      <trkpt lat="46.65444" lon="-0.22719">
        <ele>155</ele>
        <time>2023-11-08T22:32:03Z</time>
      </trkpt>
      <trkpt lat="46.65423" lon="-0.22757">
        <ele>156</ele>
        <time>2023-11-08T22:32:47Z</time>
      </trkpt>
      <trkpt lat="46.65455" lon="-0.22787">
        <ele>152</ele>
        <time>2023-11-08T22:33:38Z</time>
      </trkpt>
      <trkpt lat="46.6547" lon="-0.22839">
        <ele>150</ele>
        <time>2023-11-08T22:34:30Z</time>
      </trkpt>
      <trkpt lat="46.65458" lon="-0.22894">
        <ele>153</ele>
        <time>2023-11-08T22:35:23Z</time>
      </trkpt>
      <trkpt lat="46.6549" lon="-0.22922">
        <ele>152</ele>
        <time>2023-11-08T22:36:12Z</time>
      </trkpt>
      <trkpt lat="46.65529" lon="-0.22909">
        <ele>148</ele>
        <time>2023-11-08T22:37:06Z</time>
      </trkpt>
      <trkpt lat="46.65544" lon="-0.22963">
        <ele>149</ele>
        <time>2023-11-08T22:37:59Z</time>
      </trkpt>
      <trkpt lat="46.6555" lon="-0.23022">
        <ele>151</ele>
        <time>2023-11-08T22:38:54Z</time>
      </trkpt>
      <trkpt lat="46.65549" lon="-0.23093">
        <ele>152</ele>
        <time>2023-11-08T22:39:59Z</time>
      </trkpt>
      <trkpt lat="46.65522" lon="-0.23134">
        <ele>153</ele>
        <time>2023-11-08T22:40:51Z</time>
      </trkpt>
      <trkpt lat="46.65471" lon="-0.23226">
        <ele>154</ele>
        <time>2023-11-08T22:42:39Z</time>
      </trkpt>
      <trkpt lat="46.65449" lon="-0.23274">
        <ele>154</ele>
        <time>2023-11-08T22:43:32Z</time>
      </trkpt>
      <trkpt lat="46.6543" lon="-0.23325">
        <ele>154</ele>
        <time>2023-11-08T22:44:25Z</time>
      </trkpt>
      <trkpt lat="46.65405" lon="-0.2337">
        <ele>154</ele>
        <time>2023-11-08T22:45:18Z</time>
      </trkpt>
      <trkpt lat="46.65401" lon="-0.23429">
        <ele>153</ele>
        <time>2023-11-08T22:46:12Z</time>
      </trkpt>
      <trkpt lat="46.65427" lon="-0.23474">
        <ele>155</ele>
        <time>2023-11-08T22:47:06Z</time>
      </trkpt>
      <trkpt lat="46.65451" lon="-0.23429">
        <ele>155</ele>
        <time>2023-11-08T22:47:59Z</time>
      </trkpt>
      <trkpt lat="46.65483" lon="-0.23393">
        <ele>155</ele>
        <time>2023-11-08T22:48:52Z</time>
      </trkpt>
      <trkpt lat="46.65525" lon="-0.23336">
        <ele>155</ele>
        <time>2023-11-08T22:50:09Z</time>
      </trkpt>
      <trkpt lat="46.65568" lon="-0.23307">
        <ele>156</ele>
        <time>2023-11-08T22:51:12Z</time>
      </trkpt>
      <trkpt lat="46.65608" lon="-0.23302">
        <ele>157</ele>
        <time>2023-11-08T22:52:06Z</time>
      </trkpt>
      <trkpt lat="46.65647" lon="-0.23301">
        <ele>157</ele>
        <time>2023-11-08T22:52:58Z</time>
      </trkpt>
      <trkpt lat="46.65671" lon="-0.2341">
        <ele>163</ele>
        <time>2023-11-08T22:54:43Z</time>
      </trkpt>
      <trkpt lat="46.65716" lon="-0.23507">
        <ele>149</ele>
        <time>2023-11-08T22:56:30Z</time>
      </trkpt>
      <trkpt lat="46.65712" lon="-0.23566">
        <ele>151</ele>
        <time>2023-11-08T22:57:24Z</time>
      </trkpt>
      <trkpt lat="46.65733" lon="-0.23613">
        <ele>146</ele>
        <time>2023-11-08T22:58:16Z</time>
      </trkpt>
      <trkpt lat="46.65751" lon="-0.23665">
        <ele>143</ele>
        <time>2023-11-08T22:59:09Z</time>
      </trkpt>
      <trkpt lat="46.65747" lon="-0.23723">
        <ele>140</ele>
        <time>2023-11-08T23:00:02Z</time>
      </trkpt>
      <trkpt lat="46.6573" lon="-0.23777">
        <ele>140</ele>
        <time>2023-11-08T23:00:57Z</time>
      </trkpt>
      <trkpt lat="46.6571" lon="-0.23828">
        <ele>139</ele>
        <time>2023-11-08T23:01:51Z</time>
      </trkpt>
      <trkpt lat="46.65689" lon="-0.23873">
        <ele>139</ele>
        <time>2023-11-08T23:02:40Z</time>
      </trkpt>
      <trkpt lat="46.65707" lon="-0.23925">
        <ele>134</ele>
        <time>2023-11-08T23:03:34Z</time>
      </trkpt>
      <trkpt lat="46.65745" lon="-0.2394">
        <ele>131</ele>
        <time>2023-11-08T23:04:26Z</time>
      </trkpt>
      <trkpt lat="46.65738" lon="-0.23991">
        <ele>131</ele>
        <time>2023-11-08T23:05:14Z</time>
      </trkpt>
      <trkpt lat="46.65743" lon="-0.2405">
        <ele>132</ele>
        <time>2023-11-08T23:06:08Z</time>
      </trkpt>
      <trkpt lat="46.65732" lon="-0.24109">
        <ele>133</ele>
        <time>2023-11-08T23:07:04Z</time>
      </trkpt>
      <trkpt lat="46.65747" lon="-0.24222">
        <ele>135</ele>
        <time>2023-11-08T23:08:50Z</time>
      </trkpt>
      <trkpt lat="46.65742" lon="-0.24277">
        <ele>136</ele>
        <time>2023-11-08T23:09:41Z</time>
      </trkpt>
      <trkpt lat="46.65727" lon="-0.24328">
        <ele>137</ele>
        <time>2023-11-08T23:10:32Z</time>
      </trkpt>
      <trkpt lat="46.65705" lon="-0.24376">
        <ele>136</ele>
        <time>2023-11-08T23:11:24Z</time>
      </trkpt>
      <trkpt lat="46.65677" lon="-0.24419">
        <ele>133</ele>
        <time>2023-11-08T23:12:19Z</time>
      </trkpt>
      <trkpt lat="46.65641" lon="-0.24445">
        <ele>135</ele>
        <time>2023-11-08T23:13:12Z</time>
      </trkpt>
      <trkpt lat="46.65603" lon="-0.24546">
        <ele>137</ele>
        <time>2023-11-08T23:14:58Z</time>
      </trkpt>
      <trkpt lat="46.65575" lon="-0.24585">
        <ele>136</ele>
        <time>2023-11-08T23:15:49Z</time>
      </trkpt>
      <trkpt lat="46.65553" lon="-0.24635">
        <ele>139</ele>
        <time>2023-11-08T23:16:44Z</time>
      </trkpt>
      <trkpt lat="46.65493" lon="-0.24692">
        <ele>135</ele>
        <time>2023-11-08T23:18:19Z</time>
      </trkpt>
      <trkpt lat="46.65474" lon="-0.2476">
        <ele>138</ele>
        <time>2023-11-08T23:19:27Z</time>
      </trkpt>
      <trkpt lat="46.65455" lon="-0.24811">
        <ele>140</ele>
        <time>2023-11-08T23:20:20Z</time>
      </trkpt>
      <trkpt lat="46.65378" lon="-0.24942">
        <ele>142</ele>
        <time>2023-11-08T23:22:58Z</time>
      </trkpt>
      <trkpt lat="46.65339" lon="-0.24947">
        <ele>139</ele>
        <time>2023-11-08T23:23:50Z</time>
      </trkpt>
      <trkpt lat="46.65261" lon="-0.24922">
        <ele>132</ele>
        <time>2023-11-08T23:25:37Z</time>
      </trkpt>
      <trkpt lat="46.65223" lon="-0.24941">
        <ele>133</ele>
        <time>2023-11-08T23:26:30Z</time>
      </trkpt>
      <trkpt lat="46.65204" lon="-0.24944">
        <ele>134</ele>
        <time>2023-11-08T23:26:56Z</time>
      </trkpt>
      <trkpt lat="46.6522" lon="-0.25019">
        <ele>133</ele>
        <time>2023-11-08T23:28:08Z</time>
      </trkpt>
      <trkpt lat="46.6523" lon="-0.25045">
        <ele>133</ele>
        <time>2023-11-08T23:28:35Z</time>
      </trkpt>
      <trkpt lat="46.65244" lon="-0.25063">
        <ele>133</ele>
        <time>2023-11-08T23:29:00Z</time>
      </trkpt>
      <trkpt lat="46.65274" lon="-0.25117">
        <ele>135</ele>
        <time>2023-11-08T23:30:04Z</time>
      </trkpt>
      <trkpt lat="46.65311" lon="-0.2511">
        <ele>136</ele>
        <time>2023-11-08T23:30:53Z</time>
      </trkpt>
      <trkpt lat="46.65311" lon="-0.25053">
        <ele>136</ele>
        <time>2023-11-08T23:31:46Z</time>
      </trkpt>
      <trkpt lat="46.65342" lon="-0.25075">
        <ele>139</ele>
        <time>2023-11-08T23:32:32Z</time>
      </trkpt>
      <trkpt lat="46.65401" lon="-0.25142">
        <ele>144</ele>
        <time>2023-11-08T23:34:11Z</time>
      </trkpt>
      <trkpt lat="46.6544" lon="-0.25241">
        <ele>140</ele>
        <time>2023-11-08T23:35:56Z</time>
      </trkpt>
      <trkpt lat="46.65453" lon="-0.25294">
        <ele>139</ele>
        <time>2023-11-08T23:36:48Z</time>
      </trkpt>
      <trkpt lat="46.65455" lon="-0.25328">
        <ele>138</ele>
        <time>2023-11-08T23:37:19Z</time>
      </trkpt>
      <trkpt lat="46.6542" lon="-0.25398">
        <ele>140</ele>
        <time>2023-11-08T23:38:38Z</time>
      </trkpt>
      <trkpt lat="46.65363" lon="-0.25479">
        <ele>141</ele>
        <time>2023-11-08T23:40:24Z</time>
      </trkpt>
      <trkpt lat="46.65327" lon="-0.25508">
        <ele>140</ele>
        <time>2023-11-08T23:41:19Z</time>
      </trkpt>
      <trkpt lat="46.6527" lon="-0.25588">
        <ele>140</ele>
        <time>2023-11-08T23:43:05Z</time>
      </trkpt>
      <trkpt lat="46.6526" lon="-0.2561">
        <ele>141</ele>
        <time>2023-11-08T23:43:29Z</time>
      </trkpt>
      <trkpt lat="46.65223" lon="-0.25603">
        <ele>141</ele>
        <time>2023-11-08T23:44:19Z</time>
      </trkpt>
      <trkpt lat="46.65178" lon="-0.2561">
        <ele>141</ele>
        <time>2023-11-08T23:45:19Z</time>
      </trkpt>
      <trkpt lat="46.65096" lon="-0.25604">
        <ele>143</ele>
        <time>2023-11-08T23:47:09Z</time>
      </trkpt>
      <trkpt lat="46.65056" lon="-0.25614">
        <ele>145</ele>
        <time>2023-11-08T23:48:03Z</time>
      </trkpt>
      <trkpt lat="46.65016" lon="-0.25628">
        <ele>146</ele>
        <time>2023-11-08T23:48:58Z</time>
      </trkpt>
      <trkpt lat="46.64976" lon="-0.25635">
        <ele>146</ele>
        <time>2023-11-08T23:49:52Z</time>
      </trkpt>
      <trkpt lat="46.64943" lon="-0.25607">
        <ele>145</ele>
        <time>2023-11-08T23:50:43Z</time>
      </trkpt>
      <trkpt lat="46.64925" lon="-0.25598">
        <ele>144</ele>
        <time>2023-11-08T23:51:08Z</time>
      </trkpt>
      <trkpt lat="46.64861" lon="-0.25534">
        <ele>140</ele>
        <time>2023-11-08T23:52:52Z</time>
      </trkpt>
      <trkpt lat="46.64846" lon="-0.25486">
        <ele>138</ele>
        <time>2023-11-08T23:53:40Z</time>
      </trkpt>
      <trkpt lat="46.64833" lon="-0.25432">
        <ele>136</ele>
        <time>2023-11-08T23:54:32Z</time>
      </trkpt>
      <trkpt lat="46.64817" lon="-0.25418">
        <ele>136</ele>
        <time>2023-11-08T23:54:57Z</time>
      </trkpt>
      <trkpt lat="46.64789" lon="-0.25384">
        <ele>137</ele>
        <time>2023-11-08T23:55:46Z</time>
      </trkpt>
      <trkpt lat="46.64755" lon="-0.25363">
        <ele>139</ele>
        <time>2023-11-08T23:56:35Z</time>
      </trkpt>
      <trkpt lat="46.64716" lon="-0.2538">
        <ele>145</ele>
        <time>2023-11-08T23:57:29Z</time>
      </trkpt>
      <trkpt lat="46.6469" lon="-0.25426">
        <ele>147</ele>
        <time>2023-11-08T23:58:24Z</time>
      </trkpt>
      <trkpt lat="46.64667" lon="-0.25476">
        <ele>145</ele>
        <time>2023-11-08T23:59:19Z</time>
      </trkpt>
      <trkpt lat="46.6464" lon="-0.2552">
        <ele>145</ele>
        <time>2023-11-09T00:00:13Z</time>
      </trkpt>
      <trkpt lat="46.6462" lon="-0.2557">
        <ele>143</ele>
        <time>2023-11-09T00:01:06Z</time>
      </trkpt>
      <trkpt lat="46.64608" lon="-0.25625">
        <ele>142</ele>
        <time>2023-11-09T00:01:59Z</time>
      </trkpt>
      <trkpt lat="46.64581" lon="-0.25795">
        <ele>143</ele>
        <time>2023-11-09T00:04:39Z</time>
      </trkpt>
      <trkpt lat="46.6457" lon="-0.25851">
        <ele>145</ele>
        <time>2023-11-09T00:05:32Z</time>
      </trkpt>
      <trkpt lat="46.64555" lon="-0.25905">
        <ele>144</ele>
        <time>2023-11-09T00:06:26Z</time>
      </trkpt>
      <trkpt lat="46.64557" lon="-0.25948">
        <ele>143</ele>
        <time>2023-11-09T00:07:05Z</time>
      </trkpt>
      <trkpt lat="46.64566" lon="-0.2598">
        <ele>142</ele>
        <time>2023-11-09T00:07:37Z</time>
      </trkpt>
      <trkpt lat="46.64562" lon="-0.26038">
        <ele>142</ele>
        <time>2023-11-09T00:08:30Z</time>
      </trkpt>
      <trkpt lat="46.64543" lon="-0.26139">
        <ele>142</ele>
        <time>2023-11-09T00:10:06Z</time>
      </trkpt>
      <trkpt lat="46.64537" lon="-0.26198">
        <ele>141</ele>
        <time>2023-11-09T00:11:01Z</time>
      </trkpt>
      <trkpt lat="46.64543" lon="-0.26255">
        <ele>139</ele>
        <time>2023-11-09T00:11:54Z</time>
      </trkpt>
      <trkpt lat="46.64523" lon="-0.26309">
        <ele>137</ele>
        <time>2023-11-09T00:12:50Z</time>
      </trkpt>
      <trkpt lat="46.6451" lon="-0.26364">
        <ele>137</ele>
        <time>2023-11-09T00:13:43Z</time>
      </trkpt>
      <trkpt lat="46.64473" lon="-0.26387">
        <ele>136</ele>
        <time>2023-11-09T00:14:37Z</time>
      </trkpt>
      <trkpt lat="46.64433" lon="-0.26399">
        <ele>135</ele>
        <time>2023-11-09T00:15:31Z</time>
      </trkpt>
      <trkpt lat="46.64395" lon="-0.26387">
        <ele>134</ele>
        <time>2023-11-09T00:16:23Z</time>
      </trkpt>
      <trkpt lat="46.64369" lon="-0.26425">
        <ele>134</ele>
        <time>2023-11-09T00:17:12Z</time>
      </trkpt>
      <trkpt lat="46.64333" lon="-0.26442">
        <ele>133</ele>
        <time>2023-11-09T00:18:03Z</time>
      </trkpt>
      <trkpt lat="46.64297" lon="-0.26466">
        <ele>133</ele>
        <time>2023-11-09T00:18:56Z</time>
      </trkpt>
      <trkpt lat="46.64262" lon="-0.26497">
        <ele>133</ele>
        <time>2023-11-09T00:19:50Z</time>
      </trkpt>
      <trkpt lat="46.64234" lon="-0.26536">
        <ele>134</ele>
        <time>2023-11-09T00:20:42Z</time>
      </trkpt>
      <trkpt lat="46.64203" lon="-0.26573">
        <ele>136</ele>
        <time>2023-11-09T00:21:36Z</time>
      </trkpt>
      <trkpt lat="46.64165" lon="-0.26595">
        <ele>136</ele>
        <time>2023-11-09T00:22:30Z</time>
      </trkpt>
      <trkpt lat="46.64135" lon="-0.26627">
        <ele>137</ele>
        <time>2023-11-09T00:23:20Z</time>
      </trkpt>
      <trkpt lat="46.64087" lon="-0.26622">
        <ele>136</ele>
        <time>2023-11-09T00:24:24Z</time>
      </trkpt>
      <trkpt lat="46.64051" lon="-0.26599">
        <ele>135</ele>
        <time>2023-11-09T00:25:16Z</time>
      </trkpt>
    </trkseg>
  </trk>
</gpx>